Time;durP1;ratioP1;P1;durP2;ratioP2;P2;SDS_P1;SDS_P2;PMS_P1;PMS_P2;Temp;Humidity;BMP_temperature;BMP_pressure;BME280_temperature;BME280_humidity;BME280_pressure;Samples;Min_cycle;Max_cycle;Signal;HPM_P1;HPM_P2
2021/09/30 00:01:14;;;;;;;;;2.00;1.00;;;;;13.11;55.23;102562.25;6202359;23;44733;-91
2021/09/30 00:34:53;;;;;;;;;0.75;0.75;;;;;12.98;55.80;102547.94;6057199;23;45633;-87
2021/09/30 00:40:51;;;;;;;;;2.25;1.75;;;;;12.81;55.63;102525.66;6213560;22;45507;-86
2021/09/30 02:19:18;;;;;;;;;0.50;0.50;;;;;12.60;56.65;102518.28;6217049;22;45415;-87
2021/09/30 02:25:51;;;;;;;;;1.75;1.00;;;;;12.36;56.70;102480.00;6222350;22;45993;-87
2021/09/30 02:58:34;;;;;;;;;1.00;1.00;;;;;12.27;57.66;102458.75;6219651;22;45288;-88
2021/09/30 03:01:56;;;;;;;;;1.00;1.00;;;;;12.40;57.45;102490.63;6153062;22;46289;-87
2021/09/30 03:04:26;;;;;;;;;0.00;0.00;;;;;12.18;57.17;102458.56;6214303;22;45308;-86
2021/09/30 03:07:01;;;;;;;;;0.25;0.25;;;;;12.37;57.29;102491.47;6199904;22;45149;-87
2021/09/30 03:09:43;;;;;;;;;0.00;0.00;;;;;12.35;57.50;102491.44;6195393;22;45361;-87
2021/09/30 03:12:36;;;;;;;;;1.00;1.00;;;;;12.35;57.94;102495.84;6193100;22;46985;-87
2021/09/30 03:15:28;;;;;;;;;;;;;;;;;;;;;
2021/09/30 03:23:36;;;;;;;;;1.25;1.00;;;;;12.15;58.10;102482.28;6225897;22;45305;-86
2021/09/30 03:26:03;;;;;;;;;2.00;2.00;;;;;12.25;57.95;102494.78;6205267;22;44590;-87
2021/09/30 03:28:33;;;;;;;;;2.00;2.00;;;;;12.29;57.91;102495.72;6204408;22;44725;-87
2021/09/30 03:31:04;;;;;;;;;1.50;1.50;;;;;12.22;58.12;102485.94;6229809;22;45265;-86
2021/09/30 03:33:55;;;;;;;;;1.75;1.75;;;;;12.20;58.37;102479.72;6201260;22;46856;-87
2021/09/30 03:36:24;;;;;;;;;1.00;1.00;;;;;12.27;58.39;102503.63;6200073;22;45518;-88
2021/09/30 03:39:03;;;;;;;;;;;;;;;;;;;;;
2021/09/30 03:41:40;;;;;;;;;1.00;1.00;;;;;12.26;58.67;102503.59;6224219;22;72698;-86
2021/09/30 03:44:12;;;;;;;;;2.75;1.75;;;;;12.24;58.75;102514.16;6194355;22;47201;-87
2021/09/30 03:46:45;;;;;;;;;1.75;1.75;;;;;12.22;58.90;102507.94;6191493;22;45421;-87
2021/09/30 03:49:35;;;;;;;;;1.75;1.75;;;;;12.06;58.85;102479.50;6220852;22;45394;-87
2021/09/30 03:52:18;;;;;;;;;2.75;2.75;;;;;12.20;58.80;102511.41;6218932;22;45142;-87
2021/09/30 03:55:05;;;;;;;;;4.00;4.00;;;;;12.19;58.82;102512.25;6219213;22;45260;-86
2021/09/30 04:00:41;;;;;;;;;;;;;;;;;;;;;
2021/09/30 04:03:34;;;;;;;;;2.00;2.00;;;;;12.03;58.67;102505.81;6217577;22;72851;-87
2021/09/30 04:06:20;;;;;;;;;;;;;;;;;;;;;
2021/09/30 04:12:30;;;;;;;;;3.25;1.00;;;;;12.10;58.81;102531.47;6060451;23;45414;-87
2021/09/30 04:15:08;;;;;;;;;;;;;;;;;;;;;
2021/09/30 04:17:34;;;;;;;;;0.25;0.25;;;;;12.03;58.97;102517.28;6216973;22;76308;-87
2021/09/30 04:19:59;;;;;;;;;2.25;2.00;;;;;12.07;58.93;102524.38;6191891;22;45300;-86
2021/09/30 04:22:25;;;;;;;;;1.00;1.00;;;;;12.05;58.74;102526.09;6221115;22;45296;-87
2021/09/30 04:24:54;;;;;;;;;2.50;2.00;;;;;12.04;58.64;102513.78;6196076;22;44902;-87
2021/09/30 04:27:25;;;;;;;;;2.25;1.25;;;;;11.96;59.03;102496.03;6225503;22;45238;-86
2021/09/30 04:29:53;;;;;;;;;2.00;1.00;;;;;11.84;58.75;102496.63;6200576;22;45123;-86
2021/09/30 04:32:19;;;;;;;;;2.00;2.00;;;;;11.82;58.77;102496.59;6201250;22;44994;-86
2021/09/30 04:34:55;;;;;;;;;;;;;;;;;;;;;
2021/09/30 04:37:29;;;;;;;;;1.00;1.00;;;;;11.97;58.83;102522.41;6220940;22;74289;-87
2021/09/30 04:40:27;;;;;;;;;1.00;1.00;;;;;11.72;59.03;102475.28;6195064;22;45206;-87
2021/09/30 04:42:53;;;;;;;;;2.00;2.00;;;;;11.89;59.02;102501.19;6222815;22;45404;-87
2021/09/30 04:45:54;;;;;;;;;1.00;1.00;;;;;11.96;58.88;102518.00;6196494;22;45478;-87
2021/09/30 04:48:23;;;;;;;;;2.50;1.00;;;;;11.93;58.86;102495.97;6223304;22;45999;-86
2021/09/30 04:50:48;;;;;;;;;1.00;1.00;;;;;11.89;59.58;102501.19;6223034;22;45375;-85
2021/09/30 04:53:16;;;;;;;;;2.00;2.00;;;;;11.74;59.73;102479.75;6194985;22;45376;-86
2021/09/30 04:55:47;;;;;;;;;0.75;0.50;;;;;11.96;59.47;102514.50;6194902;22;45189;-85
2021/09/30 04:58:15;;;;;;;;;2.50;1.00;;;;;11.77;59.73;102478.91;6222556;22;45482;-86
2021/09/30 05:00:41;;;;;;;;;4.75;4.00;;;;;11.82;59.59;102493.97;6194342;22;45353;-86
2021/09/30 05:03:09;;;;;;;;;3.00;3.00;;;;;11.94;59.53;102506.53;6222747;22;45241;-86
2021/09/30 05:05:40;;;;;;;;;3.00;3.00;;;;;11.76;59.28;102478.03;6196523;22;45498;-86
2021/09/30 05:08:09;;;;;;;;;2.00;2.00;;;;;11.96;59.34;102509.22;6196894;22;45444;-86
2021/09/30 05:10:39;;;;;;;;;2.50;2.50;;;;;11.88;59.43;102509.94;6196488;22;44608;-86
2021/09/30 05:13:35;;;;;;;;;;;;;;;;;;;;;
2021/09/30 05:16:01;;;;;;;;;3.00;3.00;;;;;11.67;59.32;102483.09;6223330;22;72270;-86
2021/09/30 05:18:27;;;;;;;;;2.25;2.00;;;;;11.86;59.20;102516.94;6195624;22;45284;-87
2021/09/30 05:20:53;;;;;;;;;3.00;2.25;;;;;11.86;59.25;102522.22;6196854;22;45220;-86
2021/09/30 05:23:21;;;;;;;;;6.00;5.00;;;;;11.62;59.23;102482.13;6223006;22;45185;-85
2021/09/30 05:25:54;;;;;;;;;4.00;3.00;;;;;11.85;59.38;102525.69;6198161;22;45429;-85
2021/09/30 05:28:26;;;;;;;;;3.00;3.00;;;;;11.80;59.15;102511.50;6195575;22;45379;-87
2021/09/30 05:30:55;;;;;;;;;3.00;2.75;;;;;11.76;59.43;102514.06;6195448;22;45230;-86
2021/09/30 05:33:43;;;;;;;;;3.75;3.75;;;;;11.83;59.45;102527.41;6191755;22;45254;-87
2021/09/30 05:36:14;;;;;;;;;8.00;3.25;;;;;11.84;59.36;102523.94;6220882;22;45471;-87
2021/09/30 05:38:47;;;;;;;;;1.50;1.50;;;;;11.85;59.58;102523.06;6190732;22;48027;-87
2021/09/30 05:41:40;;;;;;;;;2.25;0.50;;;;;11.76;59.21;102504.41;6193030;22;45131;-87
2021/09/30 05:44:09;;;;;;;;;3.00;3.00;;;;;11.81;58.95;102512.41;6219106;22;45323;-86
2021/09/30 05:46:54;;;;;;;;;4.75;1.50;;;;;11.77;59.15;102507.94;6191820;22;45376;-87
2021/09/30 05:49:20;;;;;;;;;2.75;2.25;;;;;11.84;59.20;102525.66;6210955;22;47137;-84
2021/09/30 05:51:46;;;;;;;;;2.00;2.00;;;;;11.83;58.77;102513.31;6191651;22;45319;-84
2021/09/30 05:54:12;;;;;;;;;2.75;2.75;;;;;11.78;58.87;102510.59;6191288;22;45289;-85
2021/09/30 05:56:37;;;;;;;;;2.75;2.75;;;;;11.94;58.68;102532.94;6191912;22;45690;-86
2021/09/30 05:59:04;;;;;;;;;2.00;2.00;;;;;11.72;58.68;102485.84;6191762;22;47280;-86
2021/09/30 06:14:58;;;;;;;;;3.00;2.00;;;;;11.98;58.36;102518.94;6220933;22;45182;-84
2021/09/30 06:17:27;;;;;;;;;3.00;2.75;;;;;12.06;58.63;102532.28;6218433;22;45165;-84
2021/09/30 06:19:53;;;;;;;;;1.00;1.00;;;;;11.96;58.30;102510.09;6192309;22;47358;-86
2021/09/30 06:22:18;;;;;;;;;2.00;2.00;;;;;12.09;58.35;102535.88;6192428;22;45285;-84
2021/09/30 06:24:43;;;;;;;;;1.75;1.75;;;;;11.99;58.06;102504.88;6224136;22;45683;-85
2021/09/30 06:27:09;;;;;;;;;2.50;1.25;;;;;12.10;58.06;102528.84;6221570;22;45372;-85
2021/09/30 06:29:35;;;;;;;;;4.00;2.00;;;;;12.04;57.74;102510.25;6194911;22;46167;-85
2021/09/30 06:32:00;;;;;;;;;2.50;1.25;;;;;12.02;57.91;102501.41;6221253;22;45402;-84
2021/09/30 06:34:26;;;;;;;;;3.25;2.25;;;;;12.16;58.07;102526.28;6221141;22;45363;-84
2021/09/30 06:36:54;;;;;;;;;1.00;1.00;;;;;12.02;58.08;102488.19;6191650;22;45130;-84
2021/09/30 06:39:20;;;;;;;;;5.75;4.50;;;;;12.05;57.93;102490.91;6193008;22;47076;-84
2021/09/30 06:41:45;;;;;;;;;2.00;2.00;;;;;12.21;57.66;102518.47;6225277;22;45151;-84
2021/09/30 06:44:11;;;;;;;;;2.00;2.00;;;;;12.08;58.16;102493.59;6196077;22;45323;-84
2021/09/30 06:46:39;;;;;;;;;2.00;1.75;;;;;12.11;57.69;102498.94;6198788;22;45776;-84
2021/09/30 06:49:07;;;;;;;;;5.75;2.00;;;;;12.12;58.01;102490.16;6200684;22;47120;-85
2021/09/30 06:51:35;;;;;;;;;4.75;3.75;;;;;12.29;57.89;102524.78;6201297;22;45185;-86
2021/09/30 06:54:01;;;;;;;;;2.75;2.75;;;;;12.26;57.81;102507.13;6204621;22;45190;-85
2021/09/30 06:56:35;;;;;;;;;3.50;2.00;;;;;12.28;57.63;102504.53;6205966;22;45266;-85
2021/09/30 06:59:05;;;;;;;;;3.50;3.50;;;;;12.33;57.85;102510.78;6240846;22;45205;-85
2021/09/30 07:01:35;;;;;;;;;4.00;3.25;;;;;12.34;58.09;102500.22;6239394;22;44693;-86
2021/09/30 07:04:06;;;;;;;;;3.50;3.25;;;;;12.30;58.38;102487.84;6238964;22;44619;-86
2021/09/30 07:06:32;;;;;;;;;3.00;2.25;;;;;12.30;58.32;102484.31;6237459;22;44694;-85
2021/09/30 07:08:57;;;;;;;;;4.25;3.75;;;;;12.29;58.30;102478.13;6209032;22;47464;-86
2021/09/30 07:11:26;;;;;;;;;5.50;5.50;;;;;12.42;58.60;102497.72;6239579;22;44660;-85
2021/09/30 07:24:36;;;;;;;;;8.75;5.50;;;;;12.45;58.34;102503.03;6097167;23;45470;-88
2021/09/30 07:27:51;;;;;;;;;7.75;6.00;;;;;12.50;58.48;102506.66;6191870;22;45413;-88
2021/09/30 07:31:17;;;;;;;;;10.75;10.50;;;;;12.66;58.19;102522.78;6084645;23;45505;-88
2021/09/30 07:33:58;;;;;;;;;7.00;7.00;;;;;12.69;58.13;102517.53;6195336;22;47982;-89
2021/09/30 07:36:41;;;;;;;;;;;;;;;;;;;;;
2021/09/30 07:40:04;;;;;;;;;5.75;5.00;;;;;12.62;58.22;102498.06;6219064;22;68788;-90
2021/09/30 07:42:47;;;;;;;;;6.50;6.50;;;;;12.58;58.32;102488.28;6200985;22;45522;-89
2021/09/30 07:46:01;;;;;;;;;;;;;;;;;;;;;
2021/09/30 07:51:44;;;;;;;;;2.00;2.00;;;;;12.74;57.10;102477.09;6223759;22;45348;-88
2021/09/30 07:58:20;;;;;;;;;6.00;3.00;;;;;13.05;56.89;102511.94;6066224;22;45404;-86
2021/09/30 08:01:26;;;;;;;;;;;;;;;;;;;;;
2021/09/30 08:14:58;;;;;;;;;;;;;;;;;;;;;
2021/09/30 08:24:37;;;;;;;;;3.00;3.00;;;;;13.60;56.01;102530.31;5926441;24;46280;-87
2021/09/30 08:41:40;;;;;;;;;;;;;;;;;;;;;
2021/09/30 08:44:58;;;;;;;;;;;;;;;;;;;;;
2021/09/30 08:47:34;;;;;;;;;;;;;;;;;;;;;
2021/09/30 09:59:44;;;;;;;;;;;;;;;;;;;;;
2021/09/30 10:02:57;;;;;;;;;;;;;;;;;;;;;
2021/09/30 10:20:20;;;;;;;;;;;;;;;;;;;;;
2021/09/30 10:26:52;;;;;;;;;0.00;0.00;;;;;16.73;44.68;102463.13;5710374;25;45212;-87
2021/09/30 10:44:38;;;;;;;;;1.00;0.00;;;;;17.49;43.52;102432.75;6210265;22;45485;-83
2021/09/30 10:57:54;;;;;;;;;0.00;0.00;;;;;17.93;42.19;102410.28;6123966;23;45357;-85
2021/09/30 11:03:29;;;;;;;;;1.00;1.00;;;;;18.13;42.33;102396.81;6104744;23;45269;-84
2021/09/30 11:06:57;;;;;;;;;0.00;0.00;;;;;18.35;42.05;102404.63;6011642;23;45636;-84
2021/09/30 11:10:01;;;;;;;;;;;;;;;;;;;;;
2021/09/30 11:12:43;;;;;;;;;;;;;;;;;;;;;
2021/09/30 11:16:01;;;;;;;;;;;;;;;;;;;;;
2021/09/30 11:19:33;;;;;;;;;0.00;0.00;;;;;18.73;40.65;102373.06;6017160;23;74351;-84
2021/09/30 11:22:05;;;;;;;;;0.67;0.67;;;;;18.87;40.48;102383.66;5977744;23;47106;-84
2021/09/30 11:24:38;;;;;;;;;0.00;0.00;;;;;18.94;40.17;102379.09;6110078;23;45430;-86
2021/09/30 11:27:13;;;;;;;;;1.00;0.00;;;;;18.98;40.14;102366.59;6188335;22;45533;-85
2021/09/30 11:38:03;;;;;;;;;0.00;0.00;;;;;19.57;39.46;102376.47;6181330;23;45384;-85
2021/09/30 11:41:12;;;;;;;;;;;;;;;;;;;;;
2021/09/30 11:47:25;;;;;;;;;0.00;0.00;;;;;20.08;38.27;102365.00;6061932;23;46161;-87
2021/09/30 11:51:06;;;;;;;;;;;;;;;;;;;;;
2021/09/30 15:56:20;;;;;;;;;0.00;0.00;;;;;24.21;26.66;101999.94;5790330;22;15161463;-81
2021/09/30 18:47:02;;;;;;;;;5.75;4.25;;;;;18.00;39.01;101990.94;6183239;23;45462;-80
2021/09/30 18:49:48;;;;;;;;;3.00;2.00;;;;;17.96;38.76;101999.91;6154557;23;45368;-81
2021/09/30 18:59:34;;;;;;;;;0.67;0.67;;;;;17.84;39.29;102008.06;5890435;24;45388;-80
2021/09/30 19:04:58;;;;;;;;;3.25;2.00;;;;;17.76;39.51;101996.59;6001524;23;45613;-80
2021/09/30 19:08:22;;;;;;;;;;;;;;;;;;;;;
2021/09/30 20:45:41;;;;;;;;;2.00;2.00;;;;;16.82;43.13;101943.59;5893524;24;45801;-84
2021/09/30 21:05:35;;;;;;;;;3.75;1.75;;;;;16.58;43.51;101900.34;5811503;24;45378;-79
2021/09/30 21:08:02;;;;;;;;;1.00;1.00;;;;;16.52;43.64;101889.78;5785727;24;45805;-79
2021/09/30 21:13:16;;;;;;;;;7.50;4.00;;;;;16.54;43.48;101890.63;5892773;24;45464;-79
2021/09/30 21:34:22;;;;;;;;;;;;;;;;;;;;;
2021/09/30 21:36:46;;;;;;;;;0.75;0.75;;;;;16.53;43.80;101880.91;5967509;23;45870;-80
2021/09/30 21:39:12;;;;;;;;;2.00;1.67;;;;;16.46;43.78;101865.91;6024561;23;45410;-80
2021/09/30 21:42:06;;;;;;;;;1.25;1.25;;;;;16.51;43.58;101872.94;6069648;23;45462;-81
2021/09/30 21:44:42;;;;;;;;;1.00;1.00;;;;;16.48;43.90;101862.34;6130078;23;45556;-80
2021/09/30 21:47:08;;;;;;;;;1.67;1.67;;;;;16.45;43.75;101858.84;6156398;23;46883;-79
2021/09/30 21:49:34;;;;;;;;;1.00;1.00;;;;;16.36;43.33;101841.22;6179865;23;45796;-79
2021/09/30 21:52:13;;;;;;;;;;;;;;;;;;;;;
2021/09/30 21:55:00;;;;;;;;;2.00;2.00;;;;;16.44;43.58;101846.44;6182141;23;72543;-80
2021/09/30 21:58:26;;;;;;;;;;;;;;;;;;;;;
2021/09/30 22:01:11;;;;;;;;;1.50;1.00;;;;;16.41;43.52;101826.09;6207977;22;72833;-80
2021/09/30 22:04:19;;;;;;;;;;;;;;;;;;;;;
2021/09/30 22:06:58;;;;;;;;;;;;;;;;;;;;;
2021/09/30 22:10:17;;;;;;;;;;;;;;;;;;;;;
2021/09/30 22:13:13;;;;;;;;;;;;;;;;;;;;;
2021/09/30 22:27:33;;;;;;;;;;;;;;;;;;;;;
